Port Penn DE-VFC DE USA current weather conditions

sailwx.info

Wind from 259 at 0 knots gusting 0

Air temperature -3.2° C
Dewpoint -6.9° C

Last reported at 2019-Dec-08 01:40 UTC.
Time now 2019-Dec-08 02:26 UTC

Location: N 39°31' W 075°35'.
View on Google Maps.

See reports from other nearby stations

  
Tides and Currents Weather Stations Pressure Air Temp Water Temp Dewpoint Dewpoint Depression Visibility Wind Speed Wind Dir Waves Ship Positions
date/time (UTC)wind fromknots sea level pressurealtimeterstation pressurevisibilityair tempwater tempwave heightnotes
2019-Dec-08 02:05 259 0 gusting 0 -2.5
2019-Dec-08 02:00 259 0 gusting 1 -2.8
2019-Dec-08 01:40 259 0 gusting 0 -3.2
2019-Dec-08 01:35 259 0 gusting 0 -3.2
2019-Dec-08 01:30 259 0 gusting 1 -3.3
2019-Dec-08 01:25 259 0 gusting 1 -3.4
2019-Dec-08 01:20 259 0 gusting 1 -3.3
2019-Dec-08 01:15 259 0 gusting 1 -3.1
2019-Dec-08 01:10 259 1 gusting 1 -3.0
2019-Dec-08 01:05 259 0 gusting 1 -2.9
2019-Dec-08 01:00 259 0 gusting 1 -2.7
2019-Dec-08 00:55 259 1 gusting 1 -2.6
2019-Dec-08 00:50 259 1 gusting 1 -2.4
2019-Dec-08 00:45 259 1 gusting 1 -2.3
2019-Dec-08 00:40 269 1 gusting 1 -2.1
2019-Dec-08 00:35 273 1 gusting 1 -2.0
2019-Dec-08 00:30 273 0 gusting 1 -2.0
2019-Dec-08 00:25 273 1 gusting 1 -1.9
2019-Dec-08 00:20 267 1 gusting 1 -2.0
2019-Dec-08 00:15 264 1 gusting 1 -2.3
2019-Dec-08 00:10 264 1 gusting 1 -2.4
2019-Dec-08 00:05 266 1 gusting 1 -2.2
2019-Dec-08 00:00 274 0 gusting 1 -2.2
2019-Dec-07 23:55 275 0 gusting 0 -2.4
2019-Dec-07 23:50 274 0 gusting 0 -2.0
2019-Dec-07 23:45 275 0 gusting 0 -1.5
2019-Dec-07 23:40 275 0 gusting 1 -1.2
2019-Dec-07 23:35 275 0 gusting 1 -1.1
2019-Dec-07 23:30 275 0 gusting 1 -0.9
2019-Dec-07 23:25 275 0 gusting 1 -0.8
2019-Dec-07 23:20 275 0 gusting 1 -0.8
2019-Dec-07 23:15 275 0 gusting 0 -0.6
2019-Dec-07 23:10 275 0 gusting 0 -0.6
2019-Dec-07 23:05 275 0 gusting 0 -0.6
2019-Dec-07 23:00 263 0 gusting 1 -0.6
2019-Dec-07 22:55 259 1 gusting 1 -0.7
2019-Dec-07 22:50 259 1 gusting 1 -0.3
2019-Dec-07 22:45 301 0 gusting 1 -0.2
2019-Dec-07 22:40 302 0 gusting 0 -0.4
2019-Dec-07 22:35 0.1
2019-Dec-07 22:30 0.4
2019-Dec-07 22:25 0.9
2019-Dec-07 22:20 302 0 gusting 0 1.9
2019-Dec-07 21:50 297 0 gusting 1 2.7
2019-Dec-07 21:45 281 1 gusting 2 2.7
2019-Dec-07 21:40 281 2 gusting 3 2.8
2019-Dec-07 21:35 273 2 gusting 3 3.1
2019-Dec-07 21:30 277 2 gusting 3 3.4
2019-Dec-07 21:25 284 1 gusting 2 3.6
2019-Dec-07 21:20 291 1 gusting 3 3.8
2019-Dec-07 21:15 309 2 gusting 4 3.9
2019-Dec-07 21:10 304 3 gusting 5 4.0
2019-Dec-07 21:05 286 3 gusting 8 4.1
2019-Dec-07 21:00 298 3 gusting 7 4.3
2019-Dec-07 20:55 290 3 gusting 7 4.3
2019-Dec-07 20:50 285 3 gusting 6 4.4
2019-Dec-07 20:45 294 4 gusting 6 4.4
2019-Dec-07 20:40 297 4 gusting 6 4.4
2019-Dec-07 20:35 302 5 gusting 8 4.5
2019-Dec-07 20:30 294 4 gusting 7 4.5
2019-Dec-07 20:25 303 5 gusting 7 4.5
2019-Dec-07 20:20 291 5 gusting 8 4.6
2019-Dec-07 20:15 295 4 gusting 7 4.7
2019-Dec-07 20:10 287 4 gusting 7 4.6
2019-Dec-07 20:05 276 3 gusting 6 4.6
2019-Dec-07 20:00 291 4 gusting 7 4.7
2019-Dec-07 19:55 287 3 gusting 7 4.6
2019-Dec-07 19:50 296 3 gusting 6 4.7
2019-Dec-07 19:45 316 6 gusting 9 4.6
2019-Dec-07 19:40 305 4 gusting 7 4.7
2019-Dec-07 19:35 305 4 gusting 7 4.5
2019-Dec-07 19:30 299 5 gusting 8 4.5
2019-Dec-07 19:25 292 4 gusting 7 4.7
2019-Dec-07 19:20 282 4 gusting 6 4.4
2019-Dec-07 18:45 283 6 gusting 12 4.4
2019-Dec-07 18:40 321 4 gusting 9 4.3
2019-Dec-07 18:35 318 5 gusting 10 4.3
2019-Dec-07 18:30 300 5 gusting 8 4.5
2019-Dec-07 18:25 266 5 gusting 10 4.4
2019-Dec-07 18:20 268 5 gusting 9 4.1
2019-Dec-07 18:15 275 6 gusting 11 4.2
2019-Dec-07 18:10 299 4 gusting 9 4.4
2019-Dec-07 18:05 320 4 gusting 7 4.1
2019-Dec-07 18:00 306 6 gusting 11 4.1
2019-Dec-07 17:55 275 7 gusting 13 4.2
2019-Dec-07 17:50 303 6 gusting 10 4.2
2019-Dec-07 17:45 291 4 gusting 8 4.2
2019-Dec-07 17:40 283 5 gusting 8 3.8
2019-Dec-07 17:35 311 4 gusting 7 3.9
2019-Dec-07 17:30 303 4 gusting 7 3.8
2019-Dec-07 17:25 323 6 gusting 10 4.0
2019-Dec-07 17:20 308 5 gusting 9 4.0
2019-Dec-07 17:15 291 4 gusting 8 3.9
2019-Dec-07 17:10 305 4 gusting 7 4.0
2019-Dec-07 17:05 306 4 gusting 6 3.9
2019-Dec-07 17:00 297 4 gusting 7 3.9
2019-Dec-07 16:55 308 3 gusting 5 3.8
2019-Dec-07 16:50 330 3 gusting 6 3.7
2019-Dec-07 16:45 317 4 gusting 7 3.6
2019-Dec-07 16:40 292 4 gusting 6 3.8
2019-Dec-07 16:35 314 5 gusting 8 3.8
2019-Dec-07 16:30 291 4 gusting 10 4.1
2019-Dec-07 16:25 305 3 gusting 5 3.8
2019-Dec-07 16:20 280 4 gusting 8 3.7
2019-Dec-07 16:15 306 4 gusting 7 4.0
2019-Dec-07 16:10 320 4 gusting 9 3.9
2019-Dec-07 16:05 292 3 gusting 6 3.9
2019-Dec-07 16:00 297 3 gusting 6 3.7
2019-Dec-07 15:55 308 3 gusting 5 3.7
2019-Dec-07 15:50 260 3 gusting 4 3.5
2019-Dec-07 15:45 329 4 gusting 7 3.6
2019-Dec-07 15:40 318 2 gusting 4 3.7
2019-Dec-07 15:35 331 2 gusting 4 3.5
2019-Dec-07 15:30 330 3 gusting 5 3.4
2019-Dec-07 15:25 323 2 gusting 4 3.3
2019-Dec-07 15:20 328 3 gusting 6 3.3
2019-Dec-07 15:15 351 3 gusting 6 3.3
2019-Dec-07 15:10 312 4 gusting 5 3.1
2019-Dec-07 15:05 318 3 gusting 5 3.0
2019-Dec-07 15:00 306 3 gusting 5 3.0
2019-Dec-07 14:55 303 4 gusting 7 2.9
2019-Dec-07 14:50 297 4 gusting 6 3.0
2019-Dec-07 14:45 308 4 gusting 6 2.9
2019-Dec-07 14:40 308 3 gusting 5 2.9
2019-Dec-07 14:35 316 2 gusting 5 2.8
2019-Dec-07 14:30 308 2 gusting 4 2.6
2019-Dec-07 14:25 298 2 gusting 4 2.3
2019-Dec-07 14:20 265 2 gusting 4 2.1
2019-Dec-07 14:15 260 2 gusting 3 1.7
2019-Dec-07 14:10 256 2 gusting 3 1.4
2019-Dec-07 14:05 254 2 gusting 3 1.0
2019-Dec-07 14:00 257 2 gusting 2 0.7
2019-Dec-07 13:55 250 2 gusting 2 0.6
2019-Dec-07 13:50 258 1 gusting 2 0.4
2019-Dec-07 13:45 258 1 gusting 1 0.3
2019-Dec-07 13:40 258 1 gusting 1 0.4
2019-Dec-07 13:35 251 1 gusting 1 0.5
2019-Dec-07 13:30 246 0 gusting 1 0.7
2019-Dec-07 13:25 246 0 gusting 1 0.6
2019-Dec-07 13:20 246 0 gusting 0 -0.2
2019-Dec-07 13:15 -0.4
2019-Dec-07 13:10 244 0 gusting 0 -0.9
2019-Dec-07 13:05 238 1 gusting 2 -1.2
2019-Dec-07 13:00 243 1 gusting 1 -1.4
2019-Dec-07 12:55 247 1 gusting 1 -1.6
2019-Dec-07 12:50 258 1 gusting 2 -1.9
2019-Dec-07 12:45 257 1 gusting 1 -2.1
2019-Dec-07 12:40 265 1 gusting 1 -2.0
2019-Dec-07 12:35 270 1 gusting 1 -1.6
2019-Dec-07 12:30 284 1 gusting 1 -1.3
2019-Dec-07 12:25 309 0 gusting 1 -1.1
2019-Dec-07 12:20 305 0 gusting 1 -1.2
2019-Dec-07 12:15 276 1 gusting 2 -1.5
2019-Dec-07 12:10 276 2 gusting 2 -1.7
2019-Dec-07 12:05 275 2 gusting 2 -1.5
2019-Dec-07 12:00 273 2 gusting 2 -1.4
2019-Dec-07 11:55 268 2 gusting 2 -1.7
2019-Dec-07 11:50 251 2 gusting 2 -1.8
2019-Dec-07 11:45 256 1 gusting 2 -1.4
2019-Dec-07 11:40 259 1 gusting 2 -1.1
2019-Dec-07 11:35 260 1 gusting 2 -0.5
2019-Dec-07 11:30 276 1 gusting 1 -0.1
2019-Dec-07 11:25 298 0 gusting 1 0.1
2019-Dec-07 11:20 300 1 gusting 2 0.3
2019-Dec-07 11:15 309 1 gusting 2 0.4
2019-Dec-07 11:10 314 2 gusting 3 0.6
2019-Dec-07 11:05 313 2 gusting 4 0.7
2019-Dec-07 11:00 317 2 gusting 4 0.7
2019-Dec-07 10:55 317 2 gusting 4 0.6
2019-Dec-07 10:50 312 2 gusting 3 0.6
2019-Dec-07 10:45 314 2 gusting 4 0.7
2019-Dec-07 10:40 316 2 gusting 4 0.7
2019-Dec-07 10:35 312 2 gusting 4 0.7
2019-Dec-07 10:30 311 2 gusting 3 0.6
2019-Dec-07 10:25 301 2 gusting 3 0.7
2019-Dec-07 10:20 304 2 gusting 3 0.8
2019-Dec-07 10:15 298 1 gusting 3 1.0
2019-Dec-07 10:10 303 1 gusting 1 1.1
2019-Dec-07 10:05 306 1 gusting 2 1.4
2019-Dec-07 10:00 328 2 gusting 4 1.6
2019-Dec-07 09:55 318 2 gusting 4 1.6
2019-Dec-07 09:50 320 2 gusting 4 1.7
2019-Dec-07 09:45 322 3 gusting 5 1.8
2019-Dec-07 09:40 315 4 gusting 7 1.8
2019-Dec-07 09:35 325 3 gusting 6 1.6
2019-Dec-07 09:30 319 2 gusting 6 1.5
2019-Dec-07 09:25 330 1 gusting 2 1.5
2019-Dec-07 09:20 348 1 gusting 2 1.6
2019-Dec-07 09:15 332 2 gusting 5 1.8
2019-Dec-07 09:10 324 2 gusting 4 1.9
2019-Dec-07 09:05 324 2 gusting 3 2.0
2019-Dec-07 09:00 323 2 gusting 3 2.1
2019-Dec-07 08:55 323 3 gusting 4 2.2
2019-Dec-07 08:50 319 3 gusting 4 2.2
2019-Dec-07 08:45 317 2 gusting 5 2.1
2019-Dec-07 08:40 306 2 gusting 3 2.2
2019-Dec-07 08:35 308 2 gusting 4 2.5
2019-Dec-07 08:30 315 3 gusting 5 2.6
2019-Dec-07 08:25 320 3 gusting 5 2.8
2019-Dec-07 08:20 321 3 gusting 6 2.7
2019-Dec-07 08:15 324 3 gusting 6 3.0
2019-Dec-07 08:10 324 3 gusting 8 3.1
2019-Dec-07 08:05 330 3 gusting 5 3.0
2019-Dec-07 08:00 325 3 gusting 5 3.1
2019-Dec-07 07:55 322 3 gusting 5 3.1
2019-Dec-07 07:50 321 3 gusting 5 3.2
2019-Dec-07 07:45 320 4 gusting 6 3.3
2019-Dec-07 07:40 319 3 gusting 5 3.2
2019-Dec-07 07:35 319 3 gusting 5 3.3
2019-Dec-07 07:30 317 3 gusting 5 3.3
2019-Dec-07 07:25 323 3 gusting 4 3.4
2019-Dec-07 07:20 320 3 gusting 5 3.5
2019-Dec-07 07:15 320 3 gusting 5 3.5
2019-Dec-07 07:10 321 3 gusting 5 3.5
2019-Dec-07 07:05 319 3 gusting 5 3.6
2019-Dec-07 07:00 316 3 gusting 5 3.7
2019-Dec-07 06:55 319 3 gusting 6 3.7
2019-Dec-07 06:50 317 3 gusting 5 3.8
2019-Dec-07 06:45 318 4 gusting 6 3.9
2019-Dec-07 06:40 315 3 gusting 5 3.9
2019-Dec-07 06:35 318 3 gusting 5 4.0
2019-Dec-07 06:30 319 4 gusting 6 4.1
2019-Dec-07 06:25 323 4 gusting 7 4.2
2019-Dec-07 06:20 322 4 gusting 8 4.3
2019-Dec-07 06:15 320 4 gusting 6 4.3
2019-Dec-07 06:10 318 4 gusting 6 4.6
2019-Dec-07 06:05 322 5 gusting 7 4.8
2019-Dec-07 06:00 322 5 gusting 9 4.9
2019-Dec-07 05:55 326 5 gusting 8 5.0
2019-Dec-07 05:50 325 6 gusting 9 5.1
2019-Dec-07 05:45 324 6 gusting 10 5.1
2019-Dec-07 05:40 330 5 gusting 8 5.2
2019-Dec-07 05:35 330 5 gusting 7 5.2
2019-Dec-07 05:30 322 5 gusting 9 5.3
2019-Dec-07 05:25 322 5 gusting 8 5.3
2019-Dec-07 05:20 320 6 gusting 8 5.5
2019-Dec-07 05:15 328 5 gusting 8 5.6
2019-Dec-07 05:10 327 5 gusting 8 5.6
2019-Dec-07 05:05 328 4 gusting 7 5.7
2019-Dec-07 05:00 326 5 gusting 10 5.8
2019-Dec-07 04:55 334 4 gusting 9 5.9
2019-Dec-07 04:50 337 5 gusting 9 6.1
2019-Dec-07 04:45 336 6 gusting 9 6.3
2019-Dec-07 04:40 332 7 gusting 12 6.5
2019-Dec-07 04:35 332 7 gusting 12 6.8
2019-Dec-07 04:30 329 9 gusting 13 7.2
2019-Dec-07 04:25 324 7 gusting 11 7.4
2019-Dec-07 04:20 322 7 gusting 12 7.5
2019-Dec-07 04:15 322 8 gusting 14 7.5
2019-Dec-07 04:10 320 8 gusting 14 7.6
2019-Dec-07 04:05 319 7 gusting 14 7.8
2019-Dec-07 04:00 317 8 gusting 15 8.0
2019-Dec-07 03:55 317 8 gusting 11 8.1
2019-Dec-07 03:50 310 8 gusting 13 8.2
2019-Dec-07 03:45 309 8 gusting 17 8.3
2019-Dec-07 03:40 314 8 gusting 14 8.4
2019-Dec-07 03:35 308 7 gusting 13 8.4
2019-Dec-07 03:30 314 6 gusting 11 8.5
2019-Dec-07 03:25 316 5 gusting 10 8.6
2019-Dec-07 03:20 323 6 gusting 14 8.6
2019-Dec-07 03:15 316 7 gusting 11 8.6
2019-Dec-07 03:10 316 6 gusting 10 8.6
2019-Dec-07 03:05 320 6 gusting 11 8.6
2019-Dec-07 03:00 312 6 gusting 12 8.8
2019-Dec-07 02:55 315 6 gusting 11 8.8
2019-Dec-07 02:50 310 6 gusting 11 8.9
2019-Dec-07 02:45 310 7 gusting 13 9.0
2019-Dec-07 02:40 308 5 gusting 10 9.1
2019-Dec-07 02:35 309 7 gusting 11 9.2
2019-Dec-07 02:30 308 6 gusting 10 9.3
2019-Dec-07 02:25 315 7 gusting 13 9.5
2019-Dec-07 02:20 311 7 gusting 11 9.5
2019-Dec-07 02:15 319 4 gusting 8 9.3
2019-Dec-07 02:10 320 4 gusting 7 9.3
2019-Dec-07 02:05 329 4 gusting 7 9.2
2019-Dec-07 02:00 277 4 gusting 7 9.0
2019-Dec-07 01:55 273 3 gusting 6 8.9
2019-Dec-07 01:50 278 4 gusting 6 9.0
2019-Dec-07 01:45 269 4 gusting 6 9.0
2019-Dec-07 01:40 267 4 gusting 6 9.0
2019-Dec-07 01:35 264 4 gusting 5 9.1
2019-Dec-07 01:30 257 4 gusting 6 9.1
2019-Dec-07 01:25 254 4 gusting 6 9.0
2019-Dec-07 01:20 258 4 gusting 5 9.0
2019-Dec-07 01:15 257 4 gusting 6 9.0
2019-Dec-07 01:10 257 4 gusting 5 8.9
2019-Dec-07 01:05 258 4 gusting 5 9.0
2019-Dec-07 01:00 255 3 gusting 5 8.9
2019-Dec-07 00:55 259 3 gusting 4 9.1
2019-Dec-07 00:50 247 4 gusting 6 9.2
2019-Dec-07 00:45 241 4 gusting 6 9.2
2019-Dec-07 00:40 253 3 gusting 5 9.1
2019-Dec-07 00:35 261 3 gusting 6 9.2
2019-Dec-07 00:30 255 4 gusting 6 9.2
2019-Dec-07 00:25 247 4 gusting 5 9.3
2019-Dec-07 00:20 244 4 gusting 6 9.3
2019-Dec-07 00:15 239 3 gusting 6 9.3
2019-Dec-07 00:10 232 3 gusting 5 9.1
2019-Dec-07 00:05 233 3 gusting 5 9.0
2019-Dec-07 00:00 243 3 gusting 5 9.0
2019-Dec-06 23:55 251 2 gusting 4 9.0
2019-Dec-06 23:50 253 3 gusting 5 9.1
2019-Dec-06 23:45 243 4 gusting 5 9.2
2019-Dec-06 23:40 235 4 gusting 6 9.2
2019-Dec-06 23:35 255 4 gusting 6 9.3
2019-Dec-06 23:30 261 4 gusting 6 9.3
2019-Dec-06 23:25 275 4 gusting 6 9.6
2019-Dec-06 23:20 239 5 gusting 7 9.7
2019-Dec-06 23:15 222 5 gusting 8 9.8
2019-Dec-06 23:10 211 4 gusting 8 9.7
2019-Dec-06 23:05 205 4 gusting 8 9.7
2019-Dec-06 23:00 210 4 gusting 7 9.6
2019-Dec-06 22:55 195 4 gusting 9 9.6
2019-Dec-06 22:50 194 5 gusting 8 9.6
2019-Dec-06 22:45 196 6 gusting 10 9.5
2019-Dec-06 22:40 186 6 gusting 9 9.5
2019-Dec-06 22:35 187 6 gusting 9 9.6
2019-Dec-06 22:30 186 6 gusting 8 9.7
2019-Dec-06 22:25 185 6 gusting 10 9.8
2019-Dec-06 22:20 187 6 gusting 9 9.9
2019-Dec-06 22:15 191 5 gusting 8 9.8
2019-Dec-06 22:10 195 4 gusting 7 9.7
2019-Dec-06 22:05 207 4 gusting 6 10.0
2019-Dec-06 22:00 218 5 gusting 9 10.2
2019-Dec-06 21:55 229 5 gusting 8 10.4
2019-Dec-06 21:50 227 5 gusting 10 10.6
2019-Dec-06 21:45 234 5 gusting 8 10.6
2019-Dec-06 21:40 235 5 gusting 8 10.8
2019-Dec-06 21:35 233 7 gusting 10 10.9
2019-Dec-06 21:30 221 7 gusting 12 11.0
2019-Dec-06 21:25 219 6 gusting 9 11.0
2019-Dec-06 21:20 210 5 gusting 9 11.1
2019-Dec-06 21:15 213 6 gusting 11 11.1
2019-Dec-06 21:10 203 6 gusting 9 11.1
2019-Dec-06 21:05 208 5 gusting 10 11.2
2019-Dec-06 21:00 207 6 gusting 12 11.2
2019-Dec-06 20:55 210 5 gusting 11 11.1
2019-Dec-06 20:50 212 6 gusting 14 11.2
2019-Dec-06 20:45 205 4 gusting 8 11.2
2019-Dec-06 20:40 210 4 gusting 7 11.1
2019-Dec-06 20:20 202 4 gusting 7 11.1
2019-Dec-06 20:15 209 3 gusting 6 11.1
2019-Dec-06 20:10 193 3 gusting 7 11.1
2019-Dec-06 20:05 201 3 gusting 6 11.2
2019-Dec-06 20:00 204 4 gusting 7 11.2
2019-Dec-06 19:55 203 5 gusting 10 11.3
2019-Dec-06 19:50 197 4 gusting 6 11.3
2019-Dec-06 19:45 200 5 gusting 10 11.4
2019-Dec-06 19:40 196 6 gusting 10 11.4
2019-Dec-06 19:35 200 6 gusting 11 11.5
2019-Dec-06 19:30 200 4 gusting 10 11.3
2019-Dec-06 19:25 199 4 gusting 8 11.2
2019-Dec-06 19:20 195 4 gusting 12 11.2
2019-Dec-06 19:15 198 3 gusting 6 11.1
2019-Dec-06 19:10 198 4 gusting 7 11.1
2019-Dec-06 19:05 189 5 gusting 8 11.0
2019-Dec-06 19:00 185 4 gusting 7 11.0
2019-Dec-06 18:55 193 4 gusting 6 10.9
2019-Dec-06 18:50 189 4 gusting 7 10.9
2019-Dec-06 18:45 200 5 gusting 8 10.9
2019-Dec-06 18:40 196 5 gusting 10 10.8
2019-Dec-06 18:35 190 5 gusting 8 10.7
2019-Dec-06 18:30 190 6 gusting 10 10.6
2019-Dec-06 18:25 190 4 gusting 8 10.4
2019-Dec-06 18:20 182 4 gusting 6 10.2
2019-Dec-06 18:15 175 3 gusting 5 10.0
2019-Dec-06 18:10 179 3 gusting 6 9.9
2019-Dec-06 18:05 176 4 gusting 7 9.8
2019-Dec-06 18:00 181 3 gusting 5 9.8
2019-Dec-06 17:55 182 4 gusting 7 9.6
2019-Dec-06 17:50 184 4 gusting 7 9.6
2019-Dec-06 17:45 187 5 gusting 8 9.5
2019-Dec-06 17:40 184 5 gusting 8 9.4
2019-Dec-06 17:35 163 4 gusting 7 9.1
2019-Dec-06 17:30 157 5 gusting 7 9.0
2019-Dec-06 17:25 156 6 gusting 9 8.9
2019-Dec-06 17:20 168 6 gusting 9 8.7
2019-Dec-06 17:15 163 6 gusting 10 8.6
2019-Dec-06 17:10 165 6 gusting 9 8.5
2019-Dec-06 17:05 178 7 gusting 14 8.4
2019-Dec-06 17:00 172 7 gusting 10 8.3
2019-Dec-06 16:55 173 7 gusting 13 8.1
2019-Dec-06 16:50 168 6 gusting 10 8.0
2019-Dec-06 16:45 171 7 gusting 10 7.9
2019-Dec-06 16:40 168 8 gusting 12 7.9
2019-Dec-06 16:35 169 6 gusting 9 7.7
2019-Dec-06 16:30 164 7 gusting 12 7.6
2019-Dec-06 16:25 159 7 gusting 12 7.6
2019-Dec-06 16:20 171 7 gusting 10 7.5
2019-Dec-06 16:15 162 7 gusting 11 7.5
2019-Dec-06 16:10 168 8 gusting 13 7.4
2019-Dec-06 16:05 165 7 gusting 12 7.2
2019-Dec-06 16:00 162 8 gusting 12 7.1
2019-Dec-06 15:55 167 7 gusting 11 7.1
2019-Dec-06 15:50 175 6 gusting 9 6.8
2019-Dec-06 15:45 168 4 gusting 6 6.7
2019-Dec-06 15:40 169 4 gusting 7 6.4
2019-Dec-06 15:35 170 4 gusting 7 6.2
2019-Dec-06 15:30 166 3 gusting 7 6.1
2019-Dec-06 15:25 164 4 gusting 7 6.0
2019-Dec-06 15:20 166 4 gusting 8 6.0
2019-Dec-06 15:15 165 4 gusting 7 5.9
2019-Dec-06 15:10 169 5 gusting 8 5.7
2019-Dec-06 15:05 172 4 gusting 7 5.6
2019-Dec-06 15:00 167 5 gusting 8 5.4
2019-Dec-06 14:55 157 5 gusting 8 5.2
2019-Dec-06 14:50 150 6 gusting 9 5.0
2019-Dec-06 14:45 156 6 gusting 9 4.8
2019-Dec-06 14:40 157 5 gusting 8 4.6
2019-Dec-06 14:35 156 4 gusting 7 4.6
2019-Dec-06 14:30 162 5 gusting 7 4.7
2019-Dec-06 14:25 167 5 gusting 6 4.5
2019-Dec-06 14:20 170 5 gusting 7 4.2
2019-Dec-06 14:15 172 5 gusting 8 4.3
2019-Dec-06 14:10 171 6 gusting 9 4.3
2019-Dec-06 14:05 169 5 gusting 9 4.1
2019-Dec-06 14:00 169 5 gusting 9 4.0
2019-Dec-06 13:55 168 4 gusting 7 4.0
2019-Dec-06 13:50 164 4 gusting 7 4.0
2019-Dec-06 13:45 165 4 gusting 7 3.9
2019-Dec-06 13:40 165 4 gusting 6 3.9
2019-Dec-06 13:35 158 4 gusting 6 3.6
2019-Dec-06 13:30 163 4 gusting 7 3.2
2019-Dec-06 13:25 156 4 gusting 6 2.9
2019-Dec-06 13:20 153 3 gusting 5 2.6
2019-Dec-06 13:15 155 3 gusting 5 2.0
2019-Dec-06 13:10 156 3 gusting 4 1.7
2019-Dec-06 13:05 149 3 gusting 5 1.5
2019-Dec-06 13:00 144 3 gusting 5 1.4
2019-Dec-06 12:55 152 2 gusting 3 1.4
2019-Dec-06 12:50 153 2 gusting 4 1.3
2019-Dec-06 12:45 156 1 gusting 2 0.8
2019-Dec-06 12:40 151 1 gusting 2 0.5
2019-Dec-06 12:35 151 1 gusting 2 0.3
2019-Dec-06 12:30 158 1 gusting 2 -0.1
2019-Dec-06 12:25 164 1 gusting 2 -0.3
2019-Dec-06 12:20 151 1 gusting 2 -0.2
2019-Dec-06 12:10 168 2 gusting 2 -0.5
2019-Dec-06 12:05 180 2 gusting 2 -0.5
2019-Dec-06 12:00 194 1 gusting 2 -0.2
2019-Dec-06 11:55 193 1 gusting 3 -0.1
2019-Dec-06 11:50 199 1 gusting 3 -0.1
2019-Dec-06 11:45 185 2 gusting 3 -0.1
2019-Dec-06 11:40 183 3 gusting 4 -0.2
2019-Dec-06 11:35 176 2 gusting 4 -0.2
2019-Dec-06 11:30 172 2 gusting 4 -0.4
2019-Dec-06 11:25 180 2 gusting 3 -1.5
2019-Dec-06 11:20 181 0 gusting 1 -2.1
2019-Dec-06 11:15 224 0 gusting 1 -1.8
2019-Dec-06 11:10 219 0 gusting 1 -1.4
2019-Dec-06 11:05 192 1 gusting 2 -0.6
2019-Dec-06 11:00 192 2 gusting 3 -0.7
2019-Dec-06 10:55 189 2 gusting 3 -1.4
2019-Dec-06 10:50 178 1 gusting 3 -2.3
2019-Dec-06 10:45 179 1 gusting 2 -2.6
2019-Dec-06 10:40 190 0 gusting 1 -2.8
2019-Dec-06 10:35 221 0 gusting 1 -2.8
2019-Dec-06 10:30 208 0 gusting 1 -2.8
2019-Dec-06 10:25 213 0 gusting 1 -2.7
2019-Dec-06 10:20 243 0 gusting 1 -2.1
2019-Dec-06 10:15 246 0 gusting 0 -1.7
2019-Dec-06 10:10 246 0 gusting 1 -1.7
2019-Dec-06 10:05 246 0 gusting 1 -2.0
2019-Dec-06 10:00 245 0 gusting 0 -2.5
2019-Dec-06 09:55 246 0 gusting 0 -2.7
2019-Dec-06 09:50 246 0 gusting 0 -2.5
2019-Dec-06 09:45 246 0 gusting 0 -2.1
2019-Dec-06 09:40 246 0 gusting 0 -2.0
2019-Dec-06 09:35 246 0 gusting 0 -2.1
2019-Dec-06 09:30 -1.8
2019-Dec-06 09:25 246 0 gusting 0 -1.6
2019-Dec-06 09:20 -1.5
2019-Dec-06 09:15 246 0 gusting 0 -1.1
2019-Dec-06 09:10 246 0 gusting 0 -1.2
2019-Dec-06 09:05 246 0 gusting 0 -1.4
2019-Dec-06 09:00 -1.4
2019-Dec-06 08:55 246 0 gusting 0 -1.2
2019-Dec-06 08:50 246 0 gusting 0 -1.0
2019-Dec-06 08:45 246 0 gusting 0 -1.0
2019-Dec-06 08:40 245 0 gusting 0 -0.8
2019-Dec-06 08:35 246 0 gusting 1 -0.6
2019-Dec-06 08:30 244 1 gusting 1 -0.6
2019-Dec-06 08:25 223 1 gusting 1 -0.6
2019-Dec-06 08:20 234 0 gusting 1 -0.2
2019-Dec-06 08:15 246 0 gusting 0 -0.2
2019-Dec-06 08:10 246 0 gusting 0 -0.0
2019-Dec-06 08:05 246 0 gusting 1 -0.0
2019-Dec-06 08:00 249 1 gusting 1 0.0
2019-Dec-06 07:55 250 1 gusting 1 -0.1
2019-Dec-06 07:50 188 0 gusting 0 -0.0
2019-Dec-06 07:45 157 0 gusting 1 0.1
2019-Dec-06 07:40 145 0 gusting 1 0.2
2019-Dec-06 07:35 0.3
2019-Dec-06 07:30 233 0 gusting 0 0.3
2019-Dec-06 07:25 0.3
2019-Dec-06 07:20 233 0 gusting 0 0.6
2019-Dec-06 07:15 233 0 gusting 0 0.7
2019-Dec-06 07:10 234 0 gusting 1 0.9
2019-Dec-06 07:05 219 1 gusting 1 1.0
2019-Dec-06 07:00 210 1 gusting 1 1.1
2019-Dec-06 06:55 219 1 gusting 1 1.1
2019-Dec-06 06:50 224 1 gusting 2 1.3
2019-Dec-06 06:45 223 1 gusting 2 1.3
2019-Dec-06 06:40 218 1 gusting 2 1.3
2019-Dec-06 06:35 217 1 gusting 1 0.9
2019-Dec-06 06:30 235 1 gusting 2 0.5
2019-Dec-06 06:25 243 0 gusting 1 0.4
2019-Dec-06 06:20 239 1 gusting 2 0.5
2019-Dec-06 06:15 242 1 gusting 1 0.8
2019-Dec-06 06:10 236 1 gusting 1 0.9
2019-Dec-06 06:05 233 1 gusting 2 0.7
2019-Dec-06 06:00 241 1 gusting 1 0.5
2019-Dec-06 05:55 251 2 gusting 3 0.9
2019-Dec-06 05:50 267 2 gusting 3 -0.0
2019-Dec-06 05:45 248 1 gusting 2 -0.2
2019-Dec-06 05:40 241 1 gusting 2 0.4
2019-Dec-06 05:35 257 2 gusting 2 0.9
2019-Dec-06 05:30 262 1 gusting 2 0.7
2019-Dec-06 05:25 255 1 gusting 1 1.2
2019-Dec-06 05:20 233 1 gusting 1 1.1
2019-Dec-06 05:15 217 1 gusting 2 1.0
2019-Dec-06 05:10 230 1 gusting 2 1.1
2019-Dec-06 05:05 261 1 gusting 2 1.3
2019-Dec-06 05:00 254 2 gusting 2 1.4
2019-Dec-06 04:55 271 1 gusting 2 1.3
2019-Dec-06 04:50 257 0 gusting 1 1.5
2019-Dec-06 04:45 256 1 gusting 2 1.5
2019-Dec-06 04:40 252 2 gusting 2 1.3
2019-Dec-06 04:35 233 2 gusting 3 1.4
2019-Dec-06 04:30 226 2 gusting 3 1.6
2019-Dec-06 04:25 249 2 gusting 3 1.5
2019-Dec-06 04:20 272 2 gusting 3 1.7
2019-Dec-06 04:15 240 3 gusting 4 2.0
2019-Dec-06 04:10 237 2 gusting 4 1.8
2019-Dec-06 04:05 281 1 gusting 2 1.5
2019-Dec-06 04:00 246 3 gusting 4 1.9
2019-Dec-06 03:55 248 3 gusting 4 1.9
2019-Dec-06 03:50 258 3 gusting 4 2.0
2019-Dec-06 03:45 259 2 gusting 3 2.1
2019-Dec-06 03:40 254 3 gusting 4 2.1
2019-Dec-06 03:35 242 2 gusting 3 2.1
2019-Dec-06 03:30 240 2 gusting 3 2.1
2019-Dec-06 03:25 255 2 gusting 4 2.0
2019-Dec-06 03:20 252 2 gusting 4 2.1
2019-Dec-06 03:15 256 3 gusting 4 2.2
2019-Dec-06 03:10 255 3 gusting 5 2.3
2019-Dec-06 03:05 257 3 gusting 4 2.3
2019-Dec-06 03:00 251 3 gusting 4 2.3
2019-Dec-06 02:55 245 3 gusting 5 2.3
2019-Dec-06 02:50 241 4 gusting 6 2.3
2019-Dec-06 02:45 252 4 gusting 5 2.3
2019-Dec-06 02:40 258 3 gusting 5 2.2
2019-Dec-06 02:35 256 4 gusting 5 2.3
2019-Dec-06 02:30 260 4 gusting 6 2.3
2019-Dec-06 02:25 249 4 gusting 5 2.2
2019-Dec-06 02:20 247 4 gusting 5 2.3
2019-Dec-06 02:15 257 4 gusting 5 2.4
2019-Dec-06 02:10 260 3 gusting 4 2.6
2019-Dec-06 02:05 259 2 gusting 3 2.7
2019-Dec-06 02:00 253 3 gusting 5 2.6